Kezdőlap
METAR-TAF:

METAR-TAF

Repülőterek :

Whale Cove, Nunavut, Kanada

földrajzi szélesség: 62-14N, földrajzi hosszúság: 092-36W, magasság: 20 m

Jelenlegi meteorológiai megfigyelések

A jelentés 14 órával és 19 perccel ezelõtt készült, 22:00 UTC
Észak-északkeleti szél 3 kt
Hőmérséklet -11°C
Páratartalom 78%
Légköri nyomás 1022 hPa
Látótávolság: 24.1 km
Szakadozott felhőzet 1000 lábon
enyhe havazás

METAR: CYXN 092200Z 03003KT 15SM -SN BKN010 M11/M14 A3017 RMK SC6 LAST STFD OBS/NXT 111500Z SLP220

Idő: 07:19 (12:19 UTC)


TAF: hiányzik

Meteorológiai megfigyelések és előrejelzések több, mint 4000 repülőtéren (METAR és TAF jelentéseket).

A térképen piros és sárga pontok jelzik az elérhető meteorológiai állomásokat.

Mozgassa az egeret a pont fölött, hogy megjelenjen az állomás neve.

Azután kattintson az időjárási megfigyelések és előrejelzések megtekintéséhez.

A térkép megváltoztatása: kattintson a fekete keresztel jelölt zöld gombra ráközelítéshez, a vonallal jelölt zöld gombra távolításhoz, vagy a zöld nyilakra a szomszédos térképek eléréséhez.


METAR-TAF: